createdAt,value
2022-08-10T00:02:31.534Z,98876.78
2022-08-10T00:06:33.686Z,98882.06
2022-08-10T00:10:35.838Z,98889.06
2022-08-10T00:14:37.892Z,98882.06
2022-08-10T00:18:39.975Z,98879.28
2022-08-10T00:22:48.943Z,98878.78
2022-08-10T00:28:01.638Z,98874.44
2022-08-10T00:31:21.824Z,98879.41
2022-08-10T00:35:24.138Z,98873.41
2022-08-10T00:39:27.979Z,98870.75
2022-08-10T00:43:30.084Z,98863.66
2022-08-10T00:47:36.823Z,98861.41
2022-08-10T00:51:48.314Z,98862.56
2022-08-10T00:57:10.091Z,98861.50
2022-08-10T01:00:13.206Z,98866.22
2022-08-10T01:04:54.403Z,98855.41
2022-08-10T01:09:05.117Z,98853.72
2022-08-10T01:13:30.368Z,98846.63
2022-08-10T01:17:52.355Z,98849.91
2022-08-10T01:22:10.493Z,98853.03
2022-08-10T01:26:34.337Z,98847.91
2022-08-10T01:30:42.591Z,98844.88
2022-08-10T01:34:50.907Z,98848.47
2022-08-10T01:38:54.384Z,98848.88
2022-08-10T01:42:59.663Z,98849.31
2022-08-10T01:47:33.435Z,98852.75
2022-08-10T01:52:00.496Z,98840.91
2022-08-10T01:56:03.986Z,98855.50
2022-08-10T02:00:07.082Z,98857.41
2022-08-10T02:04:12.099Z,98859.94
2022-08-10T02:08:17.443Z,98863.75
2022-08-10T02:12:28.174Z,98862.69
2022-08-10T02:16:32.310Z,98853.31
2022-08-10T02:20:43.496Z,98859.44
2022-08-10T02:24:47.286Z,98864.38
2022-08-10T02:28:51.025Z,98867.63
2022-08-10T02:32:54.573Z,98864.88
2022-08-10T02:36:58.190Z,98874.63
2022-08-10T02:45:13.465Z,98877.16
2022-08-10T02:45:46.764Z,98875.19
2022-08-10T02:49:56.828Z,98875.19
2022-08-10T02:54:06.662Z,98886.03
2022-08-10T02:58:18.067Z,98885.31
2022-08-10T03:02:29.614Z,98880.84
2022-08-10T03:06:38.920Z,98881.50
2022-08-10T03:10:43.874Z,98877.81
2022-08-10T03:14:47.486Z,98880.19
2022-08-10T03:18:51.354Z,98875.44
2022-08-10T03:22:55.365Z,98873.19
2022-08-10T03:26:58.090Z,98870.81
2022-08-10T03:31:01.489Z,98862.66
2022-08-10T03:35:06.084Z,98859.66
2022-08-10T03:39:08.256Z,98859.75
2022-08-10T03:43:13.467Z,98860.59
2022-08-10T03:47:17.315Z,98855.91
2022-08-10T03:51:20.334Z,98857.78
2022-08-10T03:56:28.498Z,98857.28
2022-08-10T03:59:46.896Z,98861.63
2022-08-10T04:03:49.015Z,98865.00
2022-08-10T04:08:11.160Z,98861.63
2022-08-10T04:12:13.539Z,98865.13
2022-08-10T04:16:15.564Z,98874.94
2022-08-10T04:20:29.856Z,98872.50
2022-08-10T04:24:39.500Z,98870.78
2022-08-10T04:28:42.293Z,98879.22
2022-08-10T04:32:47.482Z,98880.06
2022-08-10T04:36:52.716Z,98883.34
2022-08-10T04:40:55.397Z,98886.34
2022-08-10T04:44:57.496Z,98892.91
2022-08-10T04:49:01.729Z,98881.72
2022-08-10T04:53:04.645Z,98889.63
2022-08-10T04:57:06.794Z,98874.88
2022-08-10T05:01:08.891Z,98876.19
2022-08-10T05:05:11.624Z,98871.88
2022-08-10T05:09:14.212Z,98869.22
2022-08-10T05:13:16.250Z,98873.09
2022-08-10T05:17:19.660Z,98881.09
2022-08-10T05:22:03.693Z,98871.91
2022-08-10T05:25:43.738Z,98879.69
2022-08-10T05:29:45.833Z,98877.75
2022-08-10T05:34:04.793Z,98877.06
2022-08-10T05:38:25.527Z,98872.34
2022-08-10T05:42:28.919Z,98863.53
2022-08-10T05:46:31.038Z,98863.25
2022-08-10T05:50:34.734Z,98867.84
2022-08-10T05:54:37.216Z,98867.44
2022-08-10T05:58:39.549Z,98870.41
2022-08-10T06:02:45.581Z,98869.34
2022-08-10T06:06:48.901Z,98870.06
2022-08-10T06:12:23.309Z,98875.88
2022-08-10T06:15:21.325Z,98868.38
2022-08-10T06:19:25.327Z,98869.19
2022-08-10T06:23:30.377Z,98872.31
2022-08-10T06:27:34.187Z,98866.53
2022-08-10T06:31:47.059Z,98876.44
2022-08-10T06:35:54.913Z,98876.63
2022-08-10T06:39:57.038Z,98868.16
2022-08-10T06:44:09.202Z,98872.84
2022-08-10T06:48:29.757Z,98869.72
2022-08-10T06:52:33.609Z,98878.44
2022-08-10T06:56:50.896Z,98866.47
2022-08-10T07:01:05.779Z,98871.63
2022-08-10T07:05:14.943Z,98876.03
2022-08-10T07:09:18.584Z,98877.06
2022-08-10T07:14:15.427Z,98889.50
2022-08-10T07:17:45.013Z,98878.66
2022-08-10T07:21:48.052Z,98882.56
2022-08-10T07:25:52.936Z,98888.28
2022-08-10T07:29:56.377Z,98884.31
2022-08-10T07:34:00.118Z,98891.38
2022-08-10T07:38:05.495Z,98889.41
2022-08-10T07:42:11.297Z,98889.72
2022-08-10T07:46:16.999Z,98884.63
2022-08-10T07:50:21.025Z,98894.31
2022-08-10T07:54:25.724Z,98895.41
2022-08-10T07:58:34.039Z,98891.00
2022-08-10T08:02:41.551Z,98896.50
2022-08-10T08:06:45.432Z,98890.28
2022-08-10T08:10:48.794Z,98891.69
2022-08-10T08:14:52.716Z,98888.72
2022-08-10T08:24:05.993Z,98893.50
2022-08-10T08:27:47.768Z,98892.44
2022-08-10T08:32:00.838Z,98884.84
2022-08-10T08:36:05.487Z,98878.13
2022-08-10T08:40:14.758Z,98887.72
2022-08-10T08:44:38.339Z,98883.41
2022-08-10T08:49:04.996Z,98875.75
2022-08-10T08:53:25.527Z,98878.72
2022-08-10T08:58:02.929Z,98860.84
2022-08-10T09:02:18.208Z,98867.28
2022-08-10T09:06:51.598Z,98860.09
2022-08-10T09:11:08.549Z,98855.72
2022-08-10T09:15:41.771Z,98858.56
2022-08-10T09:19:55.160Z,98859.53
2022-08-10T09:24:11.814Z,98859.84
2022-08-10T09:28:26.810Z,98863.69
2022-08-10T09:36:17.012Z,98852.00
2022-08-10T09:37:16.765Z,98852.13
2022-08-10T09:41:56.129Z,98848.06
2022-08-10T09:46:15.265Z,98838.41
2022-08-10T09:51:22.667Z,98839.44
2022-08-10T09:55:20.469Z,98844.38
2022-08-10T09:59:59.647Z,98825.72
2022-08-10T10:04:06.809Z,98833.06
2022-08-10T10:08:58.282Z,98826.53
2022-08-10T10:13:16.944Z,98827.63
2022-08-10T10:17:28.149Z,98817.97
2022-08-10T10:21:56.219Z,98814.09
2022-08-10T10:26:18.483Z,98812.28
2022-08-10T10:30:24.827Z,98804.69
2022-08-10T10:34:46.136Z,98793.88
2022-08-10T10:38:49.626Z,98811.31
2022-08-10T10:43:07.567Z,98802.66
2022-08-10T10:47:22.745Z,98796.22
2022-08-10T10:51:28.862Z,98775.25
2022-08-10T10:56:14.622Z,98779.47
2022-08-10T11:00:15.627Z,98781.63
2022-08-10T11:04:36.408Z,98766.72
2022-08-10T11:08:47.182Z,98765.91
2022-08-10T11:14:25.530Z,98768.06
2022-08-10T11:17:45.998Z,98770.00
2022-08-10T11:22:28.051Z,98764.47
2022-08-10T11:26:41.236Z,98758.00
2022-08-10T11:30:50.280Z,98758.91
2022-08-10T11:35:12.030Z,98761.19
2022-08-10T11:39:21.254Z,98753.50
2022-08-10T11:43:28.791Z,98749.81
2022-08-10T11:47:30.760Z,98734.97
2022-08-10T11:51:50.482Z,98745.25
2022-08-10T11:55:58.027Z,98736.16
2022-08-10T12:00:00.485Z,98727.28
2022-08-10T12:04:11.890Z,98748.47
2022-08-10T12:10:07.079Z,98721.31
2022-08-10T12:12:52.879Z,98713.22
2022-08-10T12:17:03.365Z,98718.34
2022-08-10T12:21:15.798Z,98709.72
2022-08-10T12:25:55.683Z,98706.81
2022-08-10T12:30:06.493Z,98694.44
2022-08-10T12:34:31.940Z,98689.63
2022-08-10T12:39:01.498Z,98699.59
2022-08-10T12:44:03.944Z,98701.28
2022-08-10T12:47:46.169Z,98700.59
2022-08-10T12:51:57.465Z,98687.22
2022-08-10T12:56:01.872Z,98675.84
2022-08-10T13:00:07.033Z,98671.81
2022-08-10T13:04:28.289Z,98660.53
2022-08-10T13:08:51.783Z,98645.84
2022-08-10T13:12:56.770Z,98656.16
2022-08-10T13:17:01.476Z,98660.19
2022-08-10T13:21:19.795Z,98655.66
2022-08-10T13:25:28.389Z,98648.75
2022-08-10T13:29:36.036Z,98641.50
2022-08-10T13:34:03.726Z,98642.16
2022-08-10T13:38:10.202Z,98635.75
2022-08-10T13:42:13.922Z,98640.78
2022-08-10T13:46:22.772Z,98626.44
2022-08-10T13:50:34.597Z,98617.00
2022-08-10T13:54:41.672Z,98611.09
2022-08-10T13:58:47.832Z,98621.59
2022-08-10T14:03:08.102Z,98617.19
2022-08-10T14:07:12.211Z,98601.16
2022-08-10T14:11:17.934Z,98604.88
2022-08-10T14:15:28.804Z,98596.78
2022-08-10T14:19:33.081Z,98595.94
2022-08-10T14:23:48.584Z,98598.28
2022-08-10T14:28:02.906Z,98591.53
2022-08-10T14:32:09.182Z,98600.31
2022-08-10T14:36:22.374Z,98582.44
2022-08-10T14:40:38.422Z,98577.69
2022-08-10T14:45:21.791Z,98566.25
2022-08-10T14:49:27.322Z,98568.78
2022-08-10T14:53:34.615Z,98576.69
2022-08-10T14:58:16.499Z,98573.31
2022-08-10T15:02:40.391Z,98570.31
2022-08-10T15:06:36.820Z,98557.50
2022-08-10T15:10:39.632Z,98556.16
2022-08-10T15:14:45.827Z,98555.44
2022-08-10T15:18:58.309Z,98563.06
2022-08-10T15:23:06.820Z,98554.44
2022-08-10T15:27:10.602Z,98558.13
2022-08-10T15:31:21.539Z,98555.41
2022-08-10T15:35:47.824Z,98550.53
2022-08-10T15:40:24.657Z,98556.44
2022-08-10T15:44:15.888Z,98544.44
2022-08-10T15:48:18.430Z,98537.53
2022-08-10T15:53:01.615Z,98525.72
2022-08-10T15:57:04.365Z,98533.47
2022-08-10T16:02:13.065Z,98523.03
2022-08-10T16:06:01.379Z,98531.44
2022-08-10T16:10:26.454Z,98519.66
2022-08-10T16:14:35.794Z,98516.59
2022-08-10T16:18:40.948Z,98519.66
2022-08-10T16:22:43.205Z,98506.81
2022-08-10T16:26:50.205Z,98504.47
2022-08-10T16:30:54.927Z,98520.31
2022-08-10T16:34:59.399Z,98513.88
2022-08-10T16:39:03.216Z,98518.88
2022-08-10T16:43:09.185Z,98516.72
2022-08-10T16:47:12.297Z,98507.31
2022-08-10T16:51:20.698Z,98503.78
2022-08-10T16:55:48.305Z,98507.44
2022-08-10T16:59:48.199Z,98508.06
2022-08-10T17:04:07.862Z,98507.38
2022-08-10T17:08:17.591Z,98498.75
2022-08-10T17:12:24.906Z,98499.03
2022-08-10T17:16:36.526Z,98499.00
2022-08-10T17:20:41.026Z,98501.16
2022-08-10T17:25:21.242Z,98502.25
2022-08-10T17:29:59.098Z,98504.09
2022-08-10T17:34:09.363Z,98498.31
2022-08-10T17:38:38.066Z,98504.66
2022-08-10T17:42:44.432Z,98499.84
2022-08-10T17:46:46.900Z,98494.03
2022-08-10T17:50:51.184Z,98503.06
2022-08-10T17:54:59.377Z,98504.63
2022-08-10T17:59:10.018Z,98510.56
2022-08-10T18:03:25.602Z,98512.22
2022-08-10T18:07:38.398Z,98508.56
2022-08-10T18:11:43.441Z,98511.06
2022-08-10T18:15:48.232Z,98516.94
2022-08-10T18:19:58.083Z,98517.16
2022-08-10T18:24:06.544Z,98526.69
2022-08-10T18:28:14.845Z,98522.13
2022-08-10T18:32:20.253Z,98517.09
2022-08-10T18:36:25.671Z,98522.63
2022-08-10T18:40:36.204Z,98523.25
2022-08-10T18:44:52.550Z,98525.41
2022-08-10T18:49:06.255Z,98526.69
2022-08-10T18:53:18.385Z,98534.19
2022-08-10T18:57:39.319Z,98533.88
2022-08-10T19:02:01.569Z,98545.28
2022-08-10T19:06:26.014Z,98557.41
2022-08-10T19:10:44.993Z,98552.03
2022-08-10T19:15:09.814Z,98550.94
2022-08-10T19:19:41.091Z,98545.34
2022-08-10T19:23:52.156Z,98554.75
2022-08-10T19:28:15.408Z,98562.28
2022-08-10T19:32:27.337Z,98566.25
2022-08-10T19:36:44.420Z,98558.53
2022-08-10T19:41:09.645Z,98572.50
2022-08-10T19:46:02.137Z,98575.50
2022-08-10T19:49:59.158Z,98566.69
2022-08-10T19:54:15.674Z,98572.31
2022-08-10T19:58:32.111Z,98571.75
2022-08-10T20:02:46.760Z,98573.22
2022-08-10T20:07:18.841Z,98580.28
2022-08-10T20:11:47.430Z,98577.66
2022-08-10T20:16:06.986Z,98578.63
2022-08-10T20:20:13.673Z,98588.13
2022-08-10T20:25:01.426Z,98586.91
2022-08-10T20:29:03.444Z,98583.72
2022-08-10T20:33:26.187Z,98580.22
2022-08-10T20:38:02.780Z,98586.38
2022-08-10T20:42:02.802Z,98592.59
2022-08-10T20:46:24.714Z,98594.63
2022-08-10T20:50:42.771Z,98587.97
2022-08-10T20:55:00.123Z,98596.53
2022-08-10T20:59:20.515Z,98600.78
2022-08-10T21:03:51.409Z,98598.88
2022-08-10T21:08:15.283Z,98597.16
2022-08-10T21:12:45.309Z,98600.00
2022-08-10T21:17:18.188Z,98600.09
2022-08-10T21:21:43.343Z,98596.66
2022-08-10T21:26:12.608Z,98602.00
2022-08-10T21:30:20.109Z,98593.00
2022-08-10T21:35:02.177Z,98598.25
2022-08-10T21:39:42.526Z,98594.16
2022-08-10T21:44:32.706Z,98594.03
2022-08-10T21:49:01.203Z,98596.56
2022-08-10T21:53:44.505Z,98591.88
2022-08-10T21:58:27.475Z,98600.69
2022-08-10T22:02:51.874Z,98598.47
2022-08-10T22:07:16.196Z,98597.06
2022-08-10T22:11:42.971Z,98593.53
2022-08-10T22:16:11.978Z,98589.53
2022-08-10T22:20:44.485Z,98589.25
2022-08-10T22:25:16.884Z,98590.06
2022-08-10T22:29:50.122Z,98590.44
2022-08-10T22:34:41.596Z,98585.03
2022-08-10T22:40:05.599Z,98589.81
2022-08-10T22:44:02.414Z,98584.31
2022-08-10T22:48:25.067Z,98583.56
2022-08-10T22:52:31.104Z,98594.66
2022-08-10T22:57:11.870Z,98593.38
2022-08-10T23:02:07.972Z,98593.03
2022-08-10T23:06:11.347Z,98594.16
2022-08-10T23:10:16.476Z,98588.13
2022-08-10T23:14:20.518Z,98595.88
2022-08-10T23:18:56.497Z,98601.81
2022-08-10T23:23:09.026Z,98598.81
2022-08-10T23:27:37.911Z,98603.72
2022-08-10T23:32:00.891Z,98599.34
2022-08-10T23:36:05.557Z,98597.22
2022-08-10T23:40:24.967Z,98598.94
2022-08-10T23:44:32.630Z,98602.56
2022-08-10T23:48:39.642Z,98592.13
2022-08-10T23:52:54.432Z,98593.25
2022-08-10T23:57:00.986Z,98592.56
